sensor_id;sensor_type;location;lat;lon;timestamp;P1;durP1;ratioP1;P2;durP2;ratioP2
75135;SDS011;63707;52.212;9.540;2023-03-11T00:00:57;17.65;;;9.30;;
75135;SDS011;63707;52.212;9.540;2023-03-11T00:03:23;16.40;;;8.18;;
75135;SDS011;63707;52.212;9.540;2023-03-11T00:05:49;17.73;;;8.50;;
75135;SDS011;63707;52.212;9.540;2023-03-11T00:08:17;17.80;;;8.50;;
75135;SDS011;63707;52.212;9.540;2023-03-11T00:10:44;17.40;;;8.57;;
75135;SDS011;63707;52.212;9.540;2023-03-11T00:13:12;17.30;;;8.15;;
75135;SDS011;63707;52.212;9.540;2023-03-11T00:15:41;17.58;;;7.63;;
75135;SDS011;63707;52.212;9.540;2023-03-11T00:18:08;15.20;;;7.57;;
75135;SDS011;63707;52.212;9.540;2023-03-11T00:20:34;15.52;;;8.27;;
75135;SDS011;63707;52.212;9.540;2023-03-11T00:23:01;13.57;;;7.03;;
75135;SDS011;63707;52.212;9.540;2023-03-11T00:25:28;12.73;;;6.55;;
75135;SDS011;63707;52.212;9.540;2023-03-11T00:27:55;12.07;;;6.13;;
75135;SDS011;63707;52.212;9.540;2023-03-11T00:30:21;10.23;;;5.10;;
75135;SDS011;63707;52.212;9.540;2023-03-11T00:32:50;11.38;;;5.70;;
75135;SDS011;63707;52.212;9.540;2023-03-11T00:35:17;11.77;;;5.80;;
75135;SDS011;63707;52.212;9.540;2023-03-11T00:37:45;8.82;;;4.45;;
75135;SDS011;63707;52.212;9.540;2023-03-11T00:40:12;10.77;;;5.47;;
75135;SDS011;63707;52.212;9.540;2023-03-11T00:42:38;9.80;;;4.63;;
75135;SDS011;63707;52.212;9.540;2023-03-11T00:45:04;9.18;;;4.40;;
75135;SDS011;63707;52.212;9.540;2023-03-11T00:47:30;8.13;;;4.45;;
75135;SDS011;63707;52.212;9.540;2023-03-11T00:49:57;7.93;;;4.35;;
75135;SDS011;63707;52.212;9.540;2023-03-11T00:52:23;8.25;;;4.00;;
75135;SDS011;63707;52.212;9.540;2023-03-11T00:54:48;10.23;;;4.45;;
75135;SDS011;63707;52.212;9.540;2023-03-11T00:57:14;6.95;;;4.18;;
75135;SDS011;63707;52.212;9.540;2023-03-11T00:59:39;9.00;;;4.30;;
75135;SDS011;63707;52.212;9.540;2023-03-11T01:02:05;10.55;;;4.05;;
75135;SDS011;63707;52.212;9.540;2023-03-11T01:04:30;7.70;;;3.97;;
75135;SDS011;63707;52.212;9.540;2023-03-11T01:06:57;9.48;;;4.50;;
75135;SDS011;63707;52.212;9.540;2023-03-11T01:09:22;13.57;;;5.00;;
75135;SDS011;63707;52.212;9.540;2023-03-11T01:11:48;9.95;;;4.47;;
75135;SDS011;63707;52.212;9.540;2023-03-11T01:14:13;9.80;;;4.93;;
75135;SDS011;63707;52.212;9.540;2023-03-11T01:16:39;8.75;;;4.75;;
75135;SDS011;63707;52.212;9.540;2023-03-11T01:19:04;8.63;;;4.50;;
75135;SDS011;63707;52.212;9.540;2023-03-11T01:21:30;9.73;;;5.05;;
75135;SDS011;63707;52.212;9.540;2023-03-11T01:23:56;9.02;;;4.80;;
75135;SDS011;63707;52.212;9.540;2023-03-11T01:26:22;12.30;;;5.45;;
75135;SDS011;63707;52.212;9.540;2023-03-11T01:28:47;9.02;;;4.85;;
75135;SDS011;63707;52.212;9.540;2023-03-11T01:31:13;10.43;;;5.22;;
75135;SDS011;63707;52.212;9.540;2023-03-11T01:33:38;10.73;;;4.40;;
75135;SDS011;63707;52.212;9.540;2023-03-11T01:36:04;8.05;;;4.13;;
75135;SDS011;63707;52.212;9.540;2023-03-11T01:38:30;11.60;;;5.32;;
75135;SDS011;63707;52.212;9.540;2023-03-11T01:40:57;11.90;;;4.90;;
75135;SDS011;63707;52.212;9.540;2023-03-11T01:43:39;9.98;;;4.45;;
75135;SDS011;63707;52.212;9.540;2023-03-11T01:46:13;9.35;;;4.03;;
75135;SDS011;63707;52.212;9.540;2023-03-11T01:48:41;9.88;;;4.25;;
75135;SDS011;63707;52.212;9.540;2023-03-11T01:51:11;11.07;;;5.03;;
75135;SDS011;63707;52.212;9.540;2023-03-11T01:53:37;10.65;;;4.82;;
75135;SDS011;63707;52.212;9.540;2023-03-11T01:56:05;10.43;;;5.07;;
75135;SDS011;63707;52.212;9.540;2023-03-11T01:58:32;10.70;;;4.93;;
75135;SDS011;63707;52.212;9.540;2023-03-11T02:01:01;9.82;;;4.47;;
75135;SDS011;63707;52.212;9.540;2023-03-11T02:03:28;10.10;;;5.00;;
75135;SDS011;63707;52.212;9.540;2023-03-11T02:05:55;8.00;;;4.18;;
75135;SDS011;63707;52.212;9.540;2023-03-11T02:08:22;9.65;;;4.05;;
75135;SDS011;63707;52.212;9.540;2023-03-11T02:10:48;12.05;;;4.20;;
75135;SDS011;63707;52.212;9.540;2023-03-11T02:13:18;9.95;;;4.43;;
75135;SDS011;63707;52.212;9.540;2023-03-11T02:15:44;6.88;;;4.10;;
75135;SDS011;63707;52.212;9.540;2023-03-11T02:18:11;11.20;;;4.57;;
75135;SDS011;63707;52.212;9.540;2023-03-11T02:20:43;8.55;;;4.90;;
75135;SDS011;63707;52.212;9.540;2023-03-11T02:23:14;8.65;;;4.13;;
75135;SDS011;63707;52.212;9.540;2023-03-11T02:25:43;8.30;;;3.90;;
75135;SDS011;63707;52.212;9.540;2023-03-11T02:28:16;11.73;;;4.55;;
75135;SDS011;63707;52.212;9.540;2023-03-11T02:30:43;12.68;;;4.88;;
75135;SDS011;63707;52.212;9.540;2023-03-11T02:33:10;12.07;;;4.95;;
75135;SDS011;63707;52.212;9.540;2023-03-11T02:35:38;10.60;;;4.78;;
75135;SDS011;63707;52.212;9.540;2023-03-11T02:38:03;13.68;;;4.57;;
75135;SDS011;63707;52.212;9.540;2023-03-11T02:40:37;9.25;;;4.28;;
75135;SDS011;63707;52.212;9.540;2023-03-11T02:43:08;11.05;;;4.28;;
75135;SDS011;63707;52.212;9.540;2023-03-11T02:45:38;11.85;;;5.47;;
75135;SDS011;63707;52.212;9.540;2023-03-11T02:48:06;13.27;;;4.43;;
75135;SDS011;63707;52.212;9.540;2023-03-11T02:50:34;14.50;;;4.75;;
75135;SDS011;63707;52.212;9.540;2023-03-11T02:53:01;10.68;;;4.22;;
75135;SDS011;63707;52.212;9.540;2023-03-11T02:55:27;9.10;;;4.53;;
75135;SDS011;63707;52.212;9.540;2023-03-11T02:57:53;10.90;;;5.07;;
75135;SDS011;63707;52.212;9.540;2023-03-11T03:00:18;12.63;;;5.05;;
75135;SDS011;63707;52.212;9.540;2023-03-11T03:02:45;15.63;;;5.28;;
75135;SDS011;63707;52.212;9.540;2023-03-11T03:05:15;14.73;;;4.68;;
75135;SDS011;63707;52.212;9.540;2023-03-11T03:07:42;12.15;;;4.25;;
75135;SDS011;63707;52.212;9.540;2023-03-11T03:10:08;8.93;;;4.63;;
75135;SDS011;63707;52.212;9.540;2023-03-11T03:12:34;13.20;;;4.70;;
75135;SDS011;63707;52.212;9.540;2023-03-11T03:15:00;9.32;;;4.70;;
75135;SDS011;63707;52.212;9.540;2023-03-11T03:17:25;9.43;;;4.65;;
75135;SDS011;63707;52.212;9.540;2023-03-11T03:19:52;10.90;;;4.57;;
75135;SDS011;63707;52.212;9.540;2023-03-11T03:22:17;15.10;;;4.97;;
75135;SDS011;63707;52.212;9.540;2023-03-11T03:24:43;14.90;;;4.60;;
75135;SDS011;63707;52.212;9.540;2023-03-11T03:27:09;12.93;;;4.18;;
75135;SDS011;63707;52.212;9.540;2023-03-11T03:29:34;14.25;;;3.95;;
75135;SDS011;63707;52.212;9.540;2023-03-11T03:32:00;9.05;;;3.70;;
75135;SDS011;63707;52.212;9.540;2023-03-11T03:34:25;17.45;;;4.65;;
75135;SDS011;63707;52.212;9.540;2023-03-11T03:36:52;13.15;;;4.05;;
75135;SDS011;63707;52.212;9.540;2023-03-11T03:39:17;12.82;;;4.15;;
75135;SDS011;63707;52.212;9.540;2023-03-11T03:41:44;13.30;;;3.78;;
75135;SDS011;63707;52.212;9.540;2023-03-11T03:44:09;13.40;;;4.13;;
75135;SDS011;63707;52.212;9.540;2023-03-11T03:46:35;10.63;;;3.78;;
75135;SDS011;63707;52.212;9.540;2023-03-11T03:49:02;17.17;;;4.10;;
75135;SDS011;63707;52.212;9.540;2023-03-11T03:51:28;16.13;;;3.75;;
75135;SDS011;63707;52.212;9.540;2023-03-11T03:53:55;12.68;;;4.60;;
75135;SDS011;63707;52.212;9.540;2023-03-11T03:56:20;11.98;;;3.85;;
75135;SDS011;63707;52.212;9.540;2023-03-11T03:58:45;12.68;;;3.72;;
75135;SDS011;63707;52.212;9.540;2023-03-11T04:01:11;12.50;;;3.60;;
75135;SDS011;63707;52.212;9.540;2023-03-11T04:03:37;18.27;;;3.92;;
75135;SDS011;63707;52.212;9.540;2023-03-11T04:06:06;12.35;;;3.70;;
75135;SDS011;63707;52.212;9.540;2023-03-11T04:08:33;10.40;;;2.90;;
75135;SDS011;63707;52.212;9.540;2023-03-11T04:11:01;13.23;;;4.10;;
75135;SDS011;63707;52.212;9.540;2023-03-11T04:13:27;16.77;;;3.75;;
75135;SDS011;63707;52.212;9.540;2023-03-11T04:15:52;7.57;;;3.28;;
75135;SDS011;63707;52.212;9.540;2023-03-11T04:18:18;8.93;;;3.13;;
75135;SDS011;63707;52.212;9.540;2023-03-11T04:20:43;8.25;;;3.63;;
75135;SDS011;63707;52.212;9.540;2023-03-11T04:23:09;11.73;;;3.03;;
75135;SDS011;63707;52.212;9.540;2023-03-11T04:25:35;10.15;;;3.35;;
75135;SDS011;63707;52.212;9.540;2023-03-11T04:28:01;9.32;;;3.50;;
75135;SDS011;63707;52.212;9.540;2023-03-11T04:30:27;9.90;;;3.63;;
75135;SDS011;63707;52.212;9.540;2023-03-11T04:32:52;14.18;;;3.83;;
75135;SDS011;63707;52.212;9.540;2023-03-11T04:35:18;8.30;;;3.03;;
75135;SDS011;63707;52.212;9.540;2023-03-11T04:37:43;18.80;;;3.35;;
75135;SDS011;63707;52.212;9.540;2023-03-11T04:40:09;15.38;;;3.20;;
75135;SDS011;63707;52.212;9.540;2023-03-11T04:42:35;13.90;;;3.40;;
75135;SDS011;63707;52.212;9.540;2023-03-11T04:45:03;9.23;;;3.25;;
75135;SDS011;63707;52.212;9.540;2023-03-11T04:47:29;13.80;;;3.05;;
75135;SDS011;63707;52.212;9.540;2023-03-11T04:49:54;11.43;;;3.20;;
75135;SDS011;63707;52.212;9.540;2023-03-11T04:52:20;7.43;;;3.03;;
75135;SDS011;63707;52.212;9.540;2023-03-11T04:54:45;14.90;;;3.92;;
75135;SDS011;63707;52.212;9.540;2023-03-11T04:57:11;11.82;;;3.30;;
75135;SDS011;63707;52.212;9.540;2023-03-11T04:59:36;12.27;;;3.17;;
75135;SDS011;63707;52.212;9.540;2023-03-11T05:02:03;8.18;;;2.80;;
75135;SDS011;63707;52.212;9.540;2023-03-11T05:04:29;9.50;;;3.60;;
75135;SDS011;63707;52.212;9.540;2023-03-11T05:06:54;13.13;;;3.72;;
75135;SDS011;63707;52.212;9.540;2023-03-11T05:09:20;10.32;;;3.22;;
75135;SDS011;63707;52.212;9.540;2023-03-11T05:11:45;11.93;;;3.50;;
75135;SDS011;63707;52.212;9.540;2023-03-11T05:14:11;9.90;;;2.70;;
75135;SDS011;63707;52.212;9.540;2023-03-11T05:16:37;9.73;;;2.95;;
75135;SDS011;63707;52.212;9.540;2023-03-11T05:19:04;8.55;;;2.90;;
75135;SDS011;63707;52.212;9.540;2023-03-11T05:21:49;10.23;;;2.67;;
75135;SDS011;63707;52.212;9.540;2023-03-11T05:24:15;13.15;;;3.22;;
75135;SDS011;63707;52.212;9.540;2023-03-11T05:26:40;12.50;;;3.13;;
75135;SDS011;63707;52.212;9.540;2023-03-11T05:29:06;7.68;;;3.10;;
75135;SDS011;63707;52.212;9.540;2023-03-11T05:31:31;10.15;;;3.08;;
75135;SDS011;63707;52.212;9.540;2023-03-11T05:33:57;10.80;;;3.50;;
75135;SDS011;63707;52.212;9.540;2023-03-11T05:36:24;14.65;;;3.92;;
75135;SDS011;63707;52.212;9.540;2023-03-11T05:38:49;15.02;;;3.40;;
75135;SDS011;63707;52.212;9.540;2023-03-11T05:41:17;11.27;;;3.15;;
75135;SDS011;63707;52.212;9.540;2023-03-11T05:43:42;6.63;;;2.85;;
75135;SDS011;63707;52.212;9.540;2023-03-11T05:46:08;12.80;;;3.05;;
75135;SDS011;63707;52.212;9.540;2023-03-11T05:48:34;10.45;;;3.67;;
75135;SDS011;63707;52.212;9.540;2023-03-11T05:51:00;12.43;;;3.55;;
75135;SDS011;63707;52.212;9.540;2023-03-11T05:53:31;13.60;;;3.10;;
75135;SDS011;63707;52.212;9.540;2023-03-11T05:55:56;11.25;;;2.97;;
75135;SDS011;63707;52.212;9.540;2023-03-11T05:58:23;9.02;;;3.20;;
75135;SDS011;63707;52.212;9.540;2023-03-11T06:00:48;12.70;;;3.72;;
75135;SDS011;63707;52.212;9.540;2023-03-11T06:03:14;7.10;;;2.78;;
75135;SDS011;63707;52.212;9.540;2023-03-11T06:05:43;11.18;;;2.75;;
75135;SDS011;63707;52.212;9.540;2023-03-11T06:08:09;12.18;;;2.75;;
75135;SDS011;63707;52.212;9.540;2023-03-11T06:10:36;9.43;;;2.58;;
75135;SDS011;63707;52.212;9.540;2023-03-11T06:13:01;10.65;;;2.83;;
75135;SDS011;63707;52.212;9.540;2023-03-11T06:15:26;9.05;;;3.00;;
75135;SDS011;63707;52.212;9.540;2023-03-11T06:17:52;8.43;;;2.60;;
75135;SDS011;63707;52.212;9.540;2023-03-11T06:20:18;8.93;;;2.53;;
75135;SDS011;63707;52.212;9.540;2023-03-11T06:22:43;9.73;;;2.55;;
75135;SDS011;63707;52.212;9.540;2023-03-11T06:25:09;12.15;;;2.50;;
75135;SDS011;63707;52.212;9.540;2023-03-11T06:27:36;8.32;;;2.38;;
75135;SDS011;63707;52.212;9.540;2023-03-11T06:30:02;9.23;;;1.85;;
75135;SDS011;63707;52.212;9.540;2023-03-11T06:32:28;10.35;;;2.40;;
75135;SDS011;63707;52.212;9.540;2023-03-11T06:34:54;6.80;;;1.70;;
75135;SDS011;63707;52.212;9.540;2023-03-11T06:37:19;7.43;;;2.08;;
75135;SDS011;63707;52.212;9.540;2023-03-11T06:39:50;9.95;;;2.00;;
75135;SDS011;63707;52.212;9.540;2023-03-11T06:42:16;7.75;;;1.90;;
75135;SDS011;63707;52.212;9.540;2023-03-11T06:44:42;12.73;;;2.42;;
75135;SDS011;63707;52.212;9.540;2023-03-11T06:47:08;8.60;;;2.58;;
75135;SDS011;63707;52.212;9.540;2023-03-11T06:49:33;8.98;;;1.98;;
75135;SDS011;63707;52.212;9.540;2023-03-11T06:52:00;4.82;;;1.67;;
75135;SDS011;63707;52.212;9.540;2023-03-11T06:54:26;9.32;;;2.35;;
75135;SDS011;63707;52.212;9.540;2023-03-11T06:56:51;8.95;;;1.80;;
75135;SDS011;63707;52.212;9.540;2023-03-11T06:59:17;12.25;;;2.00;;
75135;SDS011;63707;52.212;9.540;2023-03-11T07:01:44;6.40;;;1.75;;
75135;SDS011;63707;52.212;9.540;2023-03-11T07:04:10;5.90;;;1.98;;
75135;SDS011;63707;52.212;9.540;2023-03-11T07:06:35;9.20;;;2.55;;
75135;SDS011;63707;52.212;9.540;2023-03-11T07:09:01;3.35;;;1.80;;
75135;SDS011;63707;52.212;9.540;2023-03-11T07:11:26;10.98;;;1.73;;
75135;SDS011;63707;52.212;9.540;2023-03-11T07:13:52;9.15;;;1.95;;
75135;SDS011;63707;52.212;9.540;2023-03-11T07:16:19;6.78;;;2.10;;
75135;SDS011;63707;52.212;9.540;2023-03-11T07:18:48;6.55;;;1.55;;
75135;SDS011;63707;52.212;9.540;2023-03-11T07:21:15;6.85;;;1.80;;
75135;SDS011;63707;52.212;9.540;2023-03-11T07:23:42;7.78;;;1.60;;
75135;SDS011;63707;52.212;9.540;2023-03-11T07:26:08;6.50;;;2.60;;
75135;SDS011;63707;52.212;9.540;2023-03-11T07:28:34;6.53;;;1.73;;
75135;SDS011;63707;52.212;9.540;2023-03-11T07:31:05;4.93;;;1.83;;
75135;SDS011;63707;52.212;9.540;2023-03-11T07:33:31;8.25;;;2.15;;
75135;SDS011;63707;52.212;9.540;2023-03-11T07:35:58;8.52;;;1.65;;
75135;SDS011;63707;52.212;9.540;2023-03-11T07:38:23;6.75;;;1.90;;
75135;SDS011;63707;52.212;9.540;2023-03-11T07:40:56;4.53;;;1.40;;
75135;SDS011;63707;52.212;9.540;2023-03-11T07:43:22;6.80;;;1.65;;
75135;SDS011;63707;52.212;9.540;2023-03-11T07:45:47;8.13;;;1.60;;
75135;SDS011;63707;52.212;9.540;2023-03-11T07:48:14;5.05;;;1.35;;
75135;SDS011;63707;52.212;9.540;2023-03-11T07:50:39;6.43;;;1.50;;
75135;SDS011;63707;52.212;9.540;2023-03-11T07:53:06;4.97;;;1.95;;
75135;SDS011;63707;52.212;9.540;2023-03-11T07:55:32;4.00;;;1.55;;
75135;SDS011;63707;52.212;9.540;2023-03-11T07:57:57;7.47;;;1.50;;
75135;SDS011;63707;52.212;9.540;2023-03-11T08:00:23;6.18;;;1.40;;
75135;SDS011;63707;52.212;9.540;2023-03-11T08:02:49;5.22;;;1.30;;
75135;SDS011;63707;52.212;9.540;2023-03-11T08:05:14;5.65;;;1.60;;
75135;SDS011;63707;52.212;9.540;2023-03-11T08:07:40;5.65;;;1.40;;
75135;SDS011;63707;52.212;9.540;2023-03-11T08:10:07;6.93;;;1.58;;
75135;SDS011;63707;52.212;9.540;2023-03-11T08:12:34;4.70;;;1.30;;
75135;SDS011;63707;52.212;9.540;2023-03-11T08:14:59;5.85;;;1.90;;
75135;SDS011;63707;52.212;9.540;2023-03-11T08:17:25;5.38;;;1.42;;
75135;SDS011;63707;52.212;9.540;2023-03-11T08:19:50;8.20;;;1.30;;
75135;SDS011;63707;52.212;9.540;2023-03-11T08:22:16;5.53;;;1.35;;
75135;SDS011;63707;52.212;9.540;2023-03-11T08:24:41;4.97;;;1.33;;
75135;SDS011;63707;52.212;9.540;2023-03-11T08:27:08;6.75;;;1.42;;
75135;SDS011;63707;52.212;9.540;2023-03-11T08:29:34;6.05;;;1.92;;
75135;SDS011;63707;52.212;9.540;2023-03-11T08:31:59;8.40;;;2.80;;
75135;SDS011;63707;52.212;9.540;2023-03-11T08:34:25;6.60;;;1.50;;
75135;SDS011;63707;52.212;9.540;2023-03-11T08:36:51;5.95;;;1.70;;
75135;SDS011;63707;52.212;9.540;2023-03-11T08:39:17;5.13;;;1.42;;
75135;SDS011;63707;52.212;9.540;2023-03-11T08:41:42;7.35;;;1.70;;
75135;SDS011;63707;52.212;9.540;2023-03-11T08:44:09;7.43;;;1.55;;
75135;SDS011;63707;52.212;9.540;2023-03-11T08:46:35;6.97;;;1.40;;
75135;SDS011;63707;52.212;9.540;2023-03-11T08:49:02;7.10;;;1.48;;
75135;SDS011;63707;52.212;9.540;2023-03-11T08:51:29;3.88;;;1.40;;
75135;SDS011;63707;52.212;9.540;2023-03-11T08:53:56;7.45;;;1.48;;
75135;SDS011;63707;52.212;9.540;2023-03-11T08:56:22;3.90;;;1.40;;
75135;SDS011;63707;52.212;9.540;2023-03-11T08:58:48;4.32;;;1.42;;
75135;SDS011;63707;52.212;9.540;2023-03-11T09:01:16;9.07;;;2.97;;
75135;SDS011;63707;52.212;9.540;2023-03-11T09:03:42;5.68;;;1.55;;
75135;SDS011;63707;52.212;9.540;2023-03-11T09:06:08;7.88;;;1.92;;
75135;SDS011;63707;52.212;9.540;2023-03-11T09:08:37;6.38;;;1.60;;
75135;SDS011;63707;52.212;9.540;2023-03-11T09:11:03;8.13;;;2.00;;
75135;SDS011;63707;52.212;9.540;2023-03-11T09:13:29;7.88;;;1.88;;
75135;SDS011;63707;52.212;9.540;2023-03-11T09:15:55;5.85;;;1.90;;
75135;SDS011;63707;52.212;9.540;2023-03-11T09:18:22;6.32;;;2.00;;
75135;SDS011;63707;52.212;9.540;2023-03-11T09:20:48;4.85;;;1.70;;
75135;SDS011;63707;52.212;9.540;2023-03-11T09:23:14;6.13;;;1.55;;
75135;SDS011;63707;52.212;9.540;2023-03-11T09:25:41;6.55;;;1.60;;
75135;SDS011;63707;52.212;9.540;2023-03-11T09:28:07;6.30;;;1.58;;
75135;SDS011;63707;52.212;9.540;2023-03-11T09:30:32;4.20;;;1.48;;
75135;SDS011;63707;52.212;9.540;2023-03-11T09:32:58;5.72;;;1.70;;
75135;SDS011;63707;52.212;9.540;2023-03-11T09:35:25;3.60;;;1.27;;
75135;SDS011;63707;52.212;9.540;2023-03-11T09:37:51;4.57;;;1.40;;
75135;SDS011;63707;52.212;9.540;2023-03-11T09:40:17;8.27;;;1.70;;
75135;SDS011;63707;52.212;9.540;2023-03-11T09:42:44;4.43;;;1.67;;
75135;SDS011;63707;52.212;9.540;2023-03-11T09:45:18;6.15;;;1.20;;
75135;SDS011;63707;52.212;9.540;2023-03-11T09:47:52;5.68;;;1.40;;
75135;SDS011;63707;52.212;9.540;2023-03-11T09:50:30;3.88;;;1.30;;
75135;SDS011;63707;52.212;9.540;2023-03-11T09:53:03;3.83;;;1.63;;
75135;SDS011;63707;52.212;9.540;2023-03-11T09:55:37;5.30;;;1.65;;
75135;SDS011;63707;52.212;9.540;2023-03-11T09:58:13;5.55;;;1.45;;
75135;SDS011;63707;52.212;9.540;2023-03-11T10:00:43;5.25;;;1.50;;
75135;SDS011;63707;52.212;9.540;2023-03-11T10:03:16;4.70;;;1.42;;
75135;SDS011;63707;52.212;9.540;2023-03-11T10:06:11;6.03;;;1.95;;
75135;SDS011;63707;52.212;9.540;2023-03-11T10:08:40;8.80;;;2.00;;
75135;SDS011;63707;52.212;9.540;2023-03-11T10:11:11;6.28;;;2.10;;
75135;SDS011;63707;52.212;9.540;2023-03-11T10:13:44;5.32;;;1.75;;
75135;SDS011;63707;52.212;9.540;2023-03-11T10:16:21;5.60;;;1.80;;
75135;SDS011;63707;52.212;9.540;2023-03-11T10:18:55;6.72;;;2.13;;
75135;SDS011;63707;52.212;9.540;2023-03-11T10:21:36;5.68;;;1.70;;
75135;SDS011;63707;52.212;9.540;2023-03-11T10:24:25;6.15;;;1.63;;
75135;SDS011;63707;52.212;9.540;2023-03-11T10:27:08;7.30;;;2.03;;
75135;SDS011;63707;52.212;9.540;2023-03-11T10:29:40;11.13;;;2.28;;
75135;SDS011;63707;52.212;9.540;2023-03-11T10:32:12;4.45;;;1.70;;
75135;SDS011;63707;52.212;9.540;2023-03-11T10:34:42;6.05;;;1.70;;
75135;SDS011;63707;52.212;9.540;2023-03-11T10:37:13;7.53;;;1.80;;
75135;SDS011;63707;52.212;9.540;2023-03-11T10:39:42;9.88;;;2.00;;
75135;SDS011;63707;52.212;9.540;2023-03-11T10:42:11;6.40;;;1.85;;
75135;SDS011;63707;52.212;9.540;2023-03-11T10:44:39;4.35;;;1.95;;
75135;SDS011;63707;52.212;9.540;2023-03-11T10:47:09;5.70;;;1.90;;
75135;SDS011;63707;52.212;9.540;2023-03-11T10:49:40;5.28;;;1.60;;
75135;SDS011;63707;52.212;9.540;2023-03-11T10:52:06;7.97;;;2.30;;
75135;SDS011;63707;52.212;9.540;2023-03-11T10:54:33;4.93;;;1.85;;
75135;SDS011;63707;52.212;9.540;2023-03-11T10:57:02;7.32;;;1.92;;
75135;SDS011;63707;52.212;9.540;2023-03-11T10:59:31;7.15;;;1.83;;
75135;SDS011;63707;52.212;9.540;2023-03-11T11:01:58;4.03;;;1.65;;
75135;SDS011;63707;52.212;9.540;2023-03-11T11:04:27;3.92;;;1.60;;
75135;SDS011;63707;52.212;9.540;2023-03-11T11:06:55;7.65;;;2.03;;
75135;SDS011;63707;52.212;9.540;2023-03-11T11:09:21;4.32;;;1.90;;
75135;SDS011;63707;52.212;9.540;2023-03-11T11:14:42;6.05;;;1.60;;
75135;SDS011;63707;52.212;9.540;2023-03-11T11:17:15;4.53;;;1.20;;
75135;SDS011;63707;52.212;9.540;2023-03-11T11:19:42;3.35;;;1.73;;
75135;SDS011;63707;52.212;9.540;2023-03-11T11:22:09;3.33;;;1.52;;
75135;SDS011;63707;52.212;9.540;2023-03-11T11:24:42;5.60;;;1.40;;
75135;SDS011;63707;52.212;9.540;2023-03-11T11:27:14;6.63;;;1.60;;
75135;SDS011;63707;52.212;9.540;2023-03-11T11:29:42;6.68;;;1.60;;
75135;SDS011;63707;52.212;9.540;2023-03-11T11:32:23;6.75;;;1.60;;
75135;SDS011;63707;52.212;9.540;2023-03-11T11:34:52;6.00;;;1.23;;
75135;SDS011;63707;52.212;9.540;2023-03-11T11:37:21;5.53;;;1.60;;
75135;SDS011;63707;52.212;9.540;2023-03-11T11:39:49;5.45;;;1.40;;
75135;SDS011;63707;52.212;9.540;2023-03-11T11:42:21;5.93;;;2.13;;
75135;SDS011;63707;52.212;9.540;2023-03-11T11:44:51;5.55;;;1.52;;
75135;SDS011;63707;52.212;9.540;2023-03-11T11:47:21;7.50;;;1.52;;
75135;SDS011;63707;52.212;9.540;2023-03-11T11:49:49;4.63;;;1.58;;
75135;SDS011;63707;52.212;9.540;2023-03-11T11:52:19;5.15;;;1.40;;
75135;SDS011;63707;52.212;9.540;2023-03-11T11:54:49;11.40;;;2.55;;
75135;SDS011;63707;52.212;9.540;2023-03-11T11:57:18;7.20;;;1.80;;
75135;SDS011;63707;52.212;9.540;2023-03-11T11:59:47;6.30;;;1.60;;
75135;SDS011;63707;52.212;9.540;2023-03-11T12:02:18;11.73;;;1.50;;
75135;SDS011;63707;52.212;9.540;2023-03-11T12:05:01;5.80;;;1.40;;
75135;SDS011;63707;52.212;9.540;2023-03-11T12:07:36;5.45;;;1.50;;
75135;SDS011;63707;52.212;9.540;2023-03-11T12:10:15;5.93;;;1.45;;
75135;SDS011;63707;52.212;9.540;2023-03-11T12:12:49;4.53;;;1.55;;
75135;SDS011;63707;52.212;9.540;2023-03-11T12:15:32;8.15;;;1.77;;
75135;SDS011;63707;52.212;9.540;2023-03-11T12:18:05;7.85;;;1.77;;
75135;SDS011;63707;52.212;9.540;2023-03-11T12:20:38;5.95;;;1.50;;
75135;SDS011;63707;52.212;9.540;2023-03-11T12:23:17;5.35;;;1.50;;
75135;SDS011;63707;52.212;9.540;2023-03-11T12:26:10;5.88;;;1.50;;
75135;SDS011;63707;52.212;9.540;2023-03-11T12:28:40;5.55;;;1.52;;
75135;SDS011;63707;52.212;9.540;2023-03-11T12:31:12;8.13;;;1.73;;
75135;SDS011;63707;52.212;9.540;2023-03-11T12:33:39;8.50;;;2.10;;
75135;SDS011;63707;52.212;9.540;2023-03-11T12:36:07;5.63;;;1.50;;
75135;SDS011;63707;52.212;9.540;2023-03-11T12:38:47;6.22;;;1.45;;
75135;SDS011;63707;52.212;9.540;2023-03-11T12:41:25;5.10;;;1.45;;
75135;SDS011;63707;52.212;9.540;2023-03-11T12:43:57;5.78;;;1.70;;
75135;SDS011;63707;52.212;9.540;2023-03-11T12:49:12;5.28;;;1.50;;
75135;SDS011;63707;52.212;9.540;2023-03-11T12:51:39;6.03;;;1.42;;
75135;SDS011;63707;52.212;9.540;2023-03-11T12:54:19;4.65;;;1.65;;
75135;SDS011;63707;52.212;9.540;2023-03-11T12:56:48;5.50;;;1.60;;
75135;SDS011;63707;52.212;9.540;2023-03-11T12:59:23;5.20;;;1.50;;
75135;SDS011;63707;52.212;9.540;2023-03-11T13:02:17;5.22;;;1.52;;
75135;SDS011;63707;52.212;9.540;2023-03-11T13:04:56;5.90;;;1.40;;
75135;SDS011;63707;52.212;9.540;2023-03-11T13:07:35;4.07;;;1.40;;
75135;SDS011;63707;52.212;9.540;2023-03-11T13:10:12;4.05;;;1.42;;
75135;SDS011;63707;52.212;9.540;2023-03-11T13:12:41;4.68;;;1.40;;
75135;SDS011;63707;52.212;9.540;2023-03-11T13:18:00;3.45;;;1.13;;
75135;SDS011;63707;52.212;9.540;2023-03-11T13:23:24;7.13;;;1.27;;
75135;SDS011;63707;52.212;9.540;2023-03-11T13:26:04;5.47;;;1.55;;
75135;SDS011;63707;52.212;9.540;2023-03-11T13:28:49;8.50;;;1.30;;
75135;SDS011;63707;52.212;9.540;2023-03-11T13:31:29;4.68;;;1.30;;
75135;SDS011;63707;52.212;9.540;2023-03-11T13:34:15;2.28;;;0.90;;
75135;SDS011;63707;52.212;9.540;2023-03-11T13:36:49;7.57;;;1.25;;
75135;SDS011;63707;52.212;9.540;2023-03-11T13:39:28;6.85;;;1.55;;
75135;SDS011;63707;52.212;9.540;2023-03-11T13:42:11;6.25;;;1.35;;
75135;SDS011;63707;52.212;9.540;2023-03-11T14:29:19;2.63;;;1.00;;
75135;SDS011;63707;52.212;9.540;2023-03-11T14:31:47;9.65;;;1.75;;
75135;SDS011;63707;52.212;9.540;2023-03-11T14:34:13;5.05;;;1.08;;
75135;SDS011;63707;52.212;9.540;2023-03-11T14:36:40;5.30;;;1.05;;
75135;SDS011;63707;52.212;9.540;2023-03-11T14:39:20;8.70;;;1.38;;
75135;SDS011;63707;52.212;9.540;2023-03-11T14:41:47;6.70;;;1.20;;
75135;SDS011;63707;52.212;9.540;2023-03-11T14:44:13;4.50;;;0.90;;
75135;SDS011;63707;52.212;9.540;2023-03-11T14:46:41;5.90;;;1.30;;
75135;SDS011;63707;52.212;9.540;2023-03-11T14:49:10;4.05;;;1.00;;
75135;SDS011;63707;52.212;9.540;2023-03-11T14:51:41;7.90;;;1.13;;
75135;SDS011;63707;52.212;9.540;2023-03-11T14:54:10;3.95;;;0.80;;
75135;SDS011;63707;52.212;9.540;2023-03-11T14:56:42;7.80;;;1.50;;
75135;SDS011;63707;52.212;9.540;2023-03-11T14:59:15;6.22;;;1.60;;
75135;SDS011;63707;52.212;9.540;2023-03-11T15:01:48;4.15;;;1.08;;
75135;SDS011;63707;52.212;9.540;2023-03-11T15:04:17;7.13;;;1.40;;
75135;SDS011;63707;52.212;9.540;2023-03-11T15:06:52;8.15;;;0.70;;
75135;SDS011;63707;52.212;9.540;2023-03-11T15:09:19;4.15;;;0.90;;
75135;SDS011;63707;52.212;9.540;2023-03-11T15:11:48;6.10;;;1.80;;
75135;SDS011;63707;52.212;9.540;2023-03-11T15:14:18;3.65;;;1.10;;
75135;SDS011;63707;52.212;9.540;2023-03-11T15:16:46;4.13;;;1.20;;
75135;SDS011;63707;52.212;9.540;2023-03-11T15:19:28;5.22;;;0.85;;
75135;SDS011;63707;52.212;9.540;2023-03-11T15:21:56;5.50;;;1.70;;
75135;SDS011;63707;52.212;9.540;2023-03-11T15:24:24;4.15;;;1.42;;
75135;SDS011;63707;52.212;9.540;2023-03-11T15:26:54;10.55;;;1.40;;
75135;SDS011;63707;52.212;9.540;2023-03-11T15:29:21;4.03;;;1.00;;
75135;SDS011;63707;52.212;9.540;2023-03-11T15:31:47;7.03;;;2.40;;
75135;SDS011;63707;52.212;9.540;2023-03-11T15:34:27;4.63;;;1.00;;
75135;SDS011;63707;52.212;9.540;2023-03-11T15:37:14;6.47;;;1.45;;
75135;SDS011;63707;52.212;9.540;2023-03-11T15:39:45;5.35;;;0.90;;
75135;SDS011;63707;52.212;9.540;2023-03-11T15:42:13;2.95;;;0.82;;
75135;SDS011;63707;52.212;9.540;2023-03-11T15:44:47;7.47;;;2.90;;
75135;SDS011;63707;52.212;9.540;2023-03-11T15:47:18;6.50;;;3.30;;